sensor_id;sensor_type;location;lat;lon;timestamp;temperature;humidity
8231;DHT22;4156;50.908;6.974;2023-07-20T00:02:20;21.70;99.90
8231;DHT22;4156;50.908;6.974;2023-07-20T00:04:45;21.60;99.90
8231;DHT22;4156;50.908;6.974;2023-07-20T00:07:11;21.50;99.90
8231;DHT22;4156;50.908;6.974;2023-07-20T00:09:36;21.50;99.90
8231;DHT22;4156;50.908;6.974;2023-07-20T00:12:02;21.50;99.90
8231;DHT22;4156;50.908;6.974;2023-07-20T00:14:27;21.50;99.90
8231;DHT22;4156;50.908;6.974;2023-07-20T00:16:55;21.50;99.90
8231;DHT22;4156;50.908;6.974;2023-07-20T00:19:25;21.50;99.90
8231;DHT22;4156;50.908;6.974;2023-07-20T00:21:51;21.40;99.90
8231;DHT22;4156;50.908;6.974;2023-07-20T00:24:17;21.40;99.90
8231;DHT22;4156;50.908;6.974;2023-07-20T00:26:43;21.40;99.90
8231;DHT22;4156;50.908;6.974;2023-07-20T00:29:09;21.40;99.90
8231;DHT22;4156;50.908;6.974;2023-07-20T00:31:35;21.40;99.90
8231;DHT22;4156;50.908;6.974;2023-07-20T00:34:02;21.40;99.90
8231;DHT22;4156;50.908;6.974;2023-07-20T00:36:28;21.40;99.90
8231;DHT22;4156;50.908;6.974;2023-07-20T00:38:53;21.40;99.90
8231;DHT22;4156;50.908;6.974;2023-07-20T00:41:19;21.40;99.90
8231;DHT22;4156;50.908;6.974;2023-07-20T00:43:44;21.40;99.90
8231;DHT22;4156;50.908;6.974;2023-07-20T00:46:10;21.30;99.90
8231;DHT22;4156;50.908;6.974;2023-07-20T00:48:36;21.40;99.90
8231;DHT22;4156;50.908;6.974;2023-07-20T00:51:02;21.40;99.90
8231;DHT22;4156;50.908;6.974;2023-07-20T00:53:28;21.40;99.90
8231;DHT22;4156;50.908;6.974;2023-07-20T00:55:54;21.30;99.90
8231;DHT22;4156;50.908;6.974;2023-07-20T00:58:19;21.30;99.90
8231;DHT22;4156;50.908;6.974;2023-07-20T01:00:45;21.30;99.90
8231;DHT22;4156;50.908;6.974;2023-07-20T01:03:12;21.30;99.90
8231;DHT22;4156;50.908;6.974;2023-07-20T01:08:33;21.20;99.90
8231;DHT22;4156;50.908;6.974;2023-07-20T01:11:13;21.20;99.90
8231;DHT22;4156;50.908;6.974;2023-07-20T01:13:43;21.10;99.90
8231;DHT22;4156;50.908;6.974;2023-07-20T01:16:09;21.10;99.90
8231;DHT22;4156;50.908;6.974;2023-07-20T01:18:34;21.10;99.90
8231;DHT22;4156;50.908;6.974;2023-07-20T01:21:13;21.20;99.90
8231;DHT22;4156;50.908;6.974;2023-07-20T01:31:24;21.20;99.90
8231;DHT22;4156;50.908;6.974;2023-07-20T01:33:53;21.10;99.90
8231;DHT22;4156;50.908;6.974;2023-07-20T01:36:19;21.10;99.90
8231;DHT22;4156;50.908;6.974;2023-07-20T01:38:47;21.00;99.90
8231;DHT22;4156;50.908;6.974;2023-07-20T01:41:13;21.00;99.90
8231;DHT22;4156;50.908;6.974;2023-07-20T01:43:40;21.00;99.90
8231;DHT22;4156;50.908;6.974;2023-07-20T01:46:05;20.90;99.90
8231;DHT22;4156;50.908;6.974;2023-07-20T01:48:31;20.90;99.90
8231;DHT22;4156;50.908;6.974;2023-07-20T01:50:57;20.90;99.90
8231;DHT22;4156;50.908;6.974;2023-07-20T01:53:22;20.80;99.90
8231;DHT22;4156;50.908;6.974;2023-07-20T01:55:48;20.80;99.90
8231;DHT22;4156;50.908;6.974;2023-07-20T01:58:13;20.70;99.90
8231;DHT22;4156;50.908;6.974;2023-07-20T02:00:39;20.70;99.90
8231;DHT22;4156;50.908;6.974;2023-07-20T02:03:04;20.70;99.90
8231;DHT22;4156;50.908;6.974;2023-07-20T02:05:30;20.70;99.90
8231;DHT22;4156;50.908;6.974;2023-07-20T02:07:56;20.70;99.90
8231;DHT22;4156;50.908;6.974;2023-07-20T02:10:21;20.70;99.90
8231;DHT22;4156;50.908;6.974;2023-07-20T02:12:47;20.60;99.90
8231;DHT22;4156;50.908;6.974;2023-07-20T02:15:14;20.80;99.90
8231;DHT22;4156;50.908;6.974;2023-07-20T02:17:42;20.70;99.90
8231;DHT22;4156;50.908;6.974;2023-07-20T02:20:08;20.70;99.90
8231;DHT22;4156;50.908;6.974;2023-07-20T02:22:39;20.70;99.90
8231;DHT22;4156;50.908;6.974;2023-07-20T02:25:05;20.70;99.90
8231;DHT22;4156;50.908;6.974;2023-07-20T02:27:35;20.70;99.90
8231;DHT22;4156;50.908;6.974;2023-07-20T02:30:01;20.70;99.90
8231;DHT22;4156;50.908;6.974;2023-07-20T02:32:28;20.70;99.90
8231;DHT22;4156;50.908;6.974;2023-07-20T02:34:54;20.70;99.90
8231;DHT22;4156;50.908;6.974;2023-07-20T02:37:19;20.70;99.90
8231;DHT22;4156;50.908;6.974;2023-07-20T02:39:45;20.60;99.90
8231;DHT22;4156;50.908;6.974;2023-07-20T02:42:10;20.60;99.90
8231;DHT22;4156;50.908;6.974;2023-07-20T02:44:36;20.60;99.90
8231;DHT22;4156;50.908;6.974;2023-07-20T02:47:02;20.50;99.90
8231;DHT22;4156;50.908;6.974;2023-07-20T02:49:27;20.50;99.90
8231;DHT22;4156;50.908;6.974;2023-07-20T02:51:53;20.50;99.90
8231;DHT22;4156;50.908;6.974;2023-07-20T02:54:19;20.50;99.90
8231;DHT22;4156;50.908;6.974;2023-07-20T02:56:45;20.50;99.90
8231;DHT22;4156;50.908;6.974;2023-07-20T02:59:10;20.40;99.90
8231;DHT22;4156;50.908;6.974;2023-07-20T03:01:36;20.40;99.90
8231;DHT22;4156;50.908;6.974;2023-07-20T03:04:01;20.40;99.90
8231;DHT22;4156;50.908;6.974;2023-07-20T03:06:27;20.30;99.90
8231;DHT22;4156;50.908;6.974;2023-07-20T03:08:53;20.30;99.90
8231;DHT22;4156;50.908;6.974;2023-07-20T03:11:20;20.20;99.90
8231;DHT22;4156;50.908;6.974;2023-07-20T03:13:46;20.20;99.90
8231;DHT22;4156;50.908;6.974;2023-07-20T03:16:14;20.20;99.90
8231;DHT22;4156;50.908;6.974;2023-07-20T03:18:41;20.10;99.90
8231;DHT22;4156;50.908;6.974;2023-07-20T03:21:08;20.10;99.90
8231;DHT22;4156;50.908;6.974;2023-07-20T03:23:34;20.00;99.90
8231;DHT22;4156;50.908;6.974;2023-07-20T03:26:00;20.20;99.90
8231;DHT22;4156;50.908;6.974;2023-07-20T03:28:26;20.10;99.90
8231;DHT22;4156;50.908;6.974;2023-07-20T03:30:58;20.00;99.90
8231;DHT22;4156;50.908;6.974;2023-07-20T03:33:26;20.00;99.90
8231;DHT22;4156;50.908;6.974;2023-07-20T03:35:53;20.00;99.90
8231;DHT22;4156;50.908;6.974;2023-07-20T03:38:19;20.00;99.90
8231;DHT22;4156;50.908;6.974;2023-07-20T03:40:57;20.00;99.90
8231;DHT22;4156;50.908;6.974;2023-07-20T03:43:25;20.00;99.90
8231;DHT22;4156;50.908;6.974;2023-07-20T03:45:51;20.00;99.90
8231;DHT22;4156;50.908;6.974;2023-07-20T03:48:18;19.90;99.90
8231;DHT22;4156;50.908;6.974;2023-07-20T03:50:45;19.90;99.90
8231;DHT22;4156;50.908;6.974;2023-07-20T03:53:11;20.00;99.90
8231;DHT22;4156;50.908;6.974;2023-07-20T03:55:37;20.00;99.90
8231;DHT22;4156;50.908;6.974;2023-07-20T03:58:02;20.00;99.90
8231;DHT22;4156;50.908;6.974;2023-07-20T04:00:28;20.00;99.90
8231;DHT22;4156;50.908;6.974;2023-07-20T04:02:54;19.90;99.90
8231;DHT22;4156;50.908;6.974;2023-07-20T04:05:19;19.90;99.90
8231;DHT22;4156;50.908;6.974;2023-07-20T04:07:45;19.90;99.90
8231;DHT22;4156;50.908;6.974;2023-07-20T04:10:11;19.90;99.90
8231;DHT22;4156;50.908;6.974;2023-07-20T04:12:36;19.90;99.90
8231;DHT22;4156;50.908;6.974;2023-07-20T04:15:02;19.90;99.90
8231;DHT22;4156;50.908;6.974;2023-07-20T04:17:29;19.90;99.90
8231;DHT22;4156;50.908;6.974;2023-07-20T04:19:54;20.00;99.90
8231;DHT22;4156;50.908;6.974;2023-07-20T04:22:20;20.00;99.90
8231;DHT22;4156;50.908;6.974;2023-07-20T04:24:46;20.00;99.90
8231;DHT22;4156;50.908;6.974;2023-07-20T04:27:12;19.90;99.90
8231;DHT22;4156;50.908;6.974;2023-07-20T04:29:37;19.90;99.90
8231;DHT22;4156;50.908;6.974;2023-07-20T04:32:03;20.00;99.90
8231;DHT22;4156;50.908;6.974;2023-07-20T04:34:28;20.10;99.90
8231;DHT22;4156;50.908;6.974;2023-07-20T04:36:54;20.00;99.90
8231;DHT22;4156;50.908;6.974;2023-07-20T04:39:19;20.00;99.90
8231;DHT22;4156;50.908;6.974;2023-07-20T04:41:45;20.00;99.90
8231;DHT22;4156;50.908;6.974;2023-07-20T04:44:11;20.00;99.90
8231;DHT22;4156;50.908;6.974;2023-07-20T04:46:36;20.10;99.90
8231;DHT22;4156;50.908;6.974;2023-07-20T04:49:02;20.10;99.90
8231;DHT22;4156;50.908;6.974;2023-07-20T04:51:27;20.10;99.90
8231;DHT22;4156;50.908;6.974;2023-07-20T04:53:55;20.10;99.90
8231;DHT22;4156;50.908;6.974;2023-07-20T04:56:21;20.10;99.90
8231;DHT22;4156;50.908;6.974;2023-07-20T04:58:48;20.10;99.90
8231;DHT22;4156;50.908;6.974;2023-07-20T05:01:14;20.10;99.90
8231;DHT22;4156;50.908;6.974;2023-07-20T05:03:39;20.00;99.90
8231;DHT22;4156;50.908;6.974;2023-07-20T05:06:05;20.10;99.90
8231;DHT22;4156;50.908;6.974;2023-07-20T05:08:30;20.10;99.90
8231;DHT22;4156;50.908;6.974;2023-07-20T05:10:56;20.10;99.90
8231;DHT22;4156;50.908;6.974;2023-07-20T05:13:21;20.10;99.90
8231;DHT22;4156;50.908;6.974;2023-07-20T05:15:47;20.10;99.90
8231;DHT22;4156;50.908;6.974;2023-07-20T05:18:16;20.00;99.90
8231;DHT22;4156;50.908;6.974;2023-07-20T05:20:48;20.00;99.90
8231;DHT22;4156;50.908;6.974;2023-07-20T05:23:15;20.00;99.90
8231;DHT22;4156;50.908;6.974;2023-07-20T05:25:41;20.00;99.90
8231;DHT22;4156;50.908;6.974;2023-07-20T05:28:07;20.00;99.90
8231;DHT22;4156;50.908;6.974;2023-07-20T05:30:32;20.00;99.90
8231;DHT22;4156;50.908;6.974;2023-07-20T05:32:58;20.00;99.90
8231;DHT22;4156;50.908;6.974;2023-07-20T05:35:23;20.10;99.90
8231;DHT22;4156;50.908;6.974;2023-07-20T05:37:49;20.10;99.90
8231;DHT22;4156;50.908;6.974;2023-07-20T05:40:15;20.10;99.90
8231;DHT22;4156;50.908;6.974;2023-07-20T05:42:44;20.00;99.90
8231;DHT22;4156;50.908;6.974;2023-07-20T05:45:10;20.00;99.90
8231;DHT22;4156;50.908;6.974;2023-07-20T05:47:36;20.10;99.90
8231;DHT22;4156;50.908;6.974;2023-07-20T05:50:01;20.10;99.90
8231;DHT22;4156;50.908;6.974;2023-07-20T05:52:28;20.10;99.90
8231;DHT22;4156;50.908;6.974;2023-07-20T05:54:54;20.20;99.90
8231;DHT22;4156;50.908;6.974;2023-07-20T05:57:20;20.20;99.90
8231;DHT22;4156;50.908;6.974;2023-07-20T05:59:46;20.20;99.90
8231;DHT22;4156;50.908;6.974;2023-07-20T06:02:11;20.20;99.90
8231;DHT22;4156;50.908;6.974;2023-07-20T06:04:38;20.20;99.90
8231;DHT22;4156;50.908;6.974;2023-07-20T06:07:04;20.30;99.90
8231;DHT22;4156;50.908;6.974;2023-07-20T06:09:30;20.40;99.90
8231;DHT22;4156;50.908;6.974;2023-07-20T06:11:56;20.40;99.90
8231;DHT22;4156;50.908;6.974;2023-07-20T06:14:22;20.50;99.90
8231;DHT22;4156;50.908;6.974;2023-07-20T06:16:47;20.50;99.90
8231;DHT22;4156;50.908;6.974;2023-07-20T06:19:13;20.50;99.90
8231;DHT22;4156;50.908;6.974;2023-07-20T06:21:39;20.60;99.90
8231;DHT22;4156;50.908;6.974;2023-07-20T06:24:05;20.60;99.90
8231;DHT22;4156;50.908;6.974;2023-07-20T06:26:31;20.60;99.90
8231;DHT22;4156;50.908;6.974;2023-07-20T06:29:03;20.60;99.90
8231;DHT22;4156;50.908;6.974;2023-07-20T06:31:28;20.60;99.90
8231;DHT22;4156;50.908;6.974;2023-07-20T06:33:54;20.60;99.90
8231;DHT22;4156;50.908;6.974;2023-07-20T06:36:20;20.60;99.90
8231;DHT22;4156;50.908;6.974;2023-07-20T06:38:45;20.60;99.90
8231;DHT22;4156;50.908;6.974;2023-07-20T06:41:11;20.60;99.90
8231;DHT22;4156;50.908;6.974;2023-07-20T06:43:36;20.60;99.90
8231;DHT22;4156;50.908;6.974;2023-07-20T06:46:02;20.60;99.90
8231;DHT22;4156;50.908;6.974;2023-07-20T06:48:27;20.50;99.90
8231;DHT22;4156;50.908;6.974;2023-07-20T06:50:53;20.50;99.90
8231;DHT22;4156;50.908;6.974;2023-07-20T06:53:19;20.50;99.90
8231;DHT22;4156;50.908;6.974;2023-07-20T06:55:45;20.60;99.90
8231;DHT22;4156;50.908;6.974;2023-07-20T06:58:11;20.70;99.90
8231;DHT22;4156;50.908;6.974;2023-07-20T07:00:37;20.90;99.90
8231;DHT22;4156;50.908;6.974;2023-07-20T07:03:02;21.00;99.90
8231;DHT22;4156;50.908;6.974;2023-07-20T07:05:28;21.10;99.90
8231;DHT22;4156;50.908;6.974;2023-07-20T07:07:53;21.20;99.90
8231;DHT22;4156;50.908;6.974;2023-07-20T07:10:19;21.20;99.90
8231;DHT22;4156;50.908;6.974;2023-07-20T07:12:44;21.20;99.90
8231;DHT22;4156;50.908;6.974;2023-07-20T07:15:10;21.20;99.90
8231;DHT22;4156;50.908;6.974;2023-07-20T07:17:36;21.00;99.90
8231;DHT22;4156;50.908;6.974;2023-07-20T07:20:02;21.00;99.90
8231;DHT22;4156;50.908;6.974;2023-07-20T07:22:29;20.90;99.90
8231;DHT22;4156;50.908;6.974;2023-07-20T07:24:55;20.90;99.90
8231;DHT22;4156;50.908;6.974;2023-07-20T07:27:20;20.90;99.90
8231;DHT22;4156;50.908;6.974;2023-07-20T07:29:45;21.10;99.90
8231;DHT22;4156;50.908;6.974;2023-07-20T07:32:12;21.20;99.90
8231;DHT22;4156;50.908;6.974;2023-07-20T07:34:38;21.30;99.90
8231;DHT22;4156;50.908;6.974;2023-07-20T07:37:07;21.30;99.90
8231;DHT22;4156;50.908;6.974;2023-07-20T07:39:32;21.40;99.90
8231;DHT22;4156;50.908;6.974;2023-07-20T07:41:58;21.40;99.90
8231;DHT22;4156;50.908;6.974;2023-07-20T07:44:24;21.30;99.90
8231;DHT22;4156;50.908;6.974;2023-07-20T07:46:49;21.30;99.90
8231;DHT22;4156;50.908;6.974;2023-07-20T07:49:15;21.30;99.90
8231;DHT22;4156;50.908;6.974;2023-07-20T07:51:41;21.40;99.90
8231;DHT22;4156;50.908;6.974;2023-07-20T07:54:07;21.40;99.90
8231;DHT22;4156;50.908;6.974;2023-07-20T07:56:32;21.40;99.90
8231;DHT22;4156;50.908;6.974;2023-07-20T07:58:58;21.50;99.90
8231;DHT22;4156;50.908;6.974;2023-07-20T08:01:23;21.50;99.90
8231;DHT22;4156;50.908;6.974;2023-07-20T08:03:49;21.60;99.90
8231;DHT22;4156;50.908;6.974;2023-07-20T08:06:15;21.60;99.90
8231;DHT22;4156;50.908;6.974;2023-07-20T08:08:41;21.70;99.90
8231;DHT22;4156;50.908;6.974;2023-07-20T08:11:07;21.70;99.90
8231;DHT22;4156;50.908;6.974;2023-07-20T08:13:33;21.80;99.90
8231;DHT22;4156;50.908;6.974;2023-07-20T08:15:59;21.80;99.90
8231;DHT22;4156;50.908;6.974;2023-07-20T08:18:24;21.90;99.90
8231;DHT22;4156;50.908;6.974;2023-07-20T08:20:50;21.90;99.90
8231;DHT22;4156;50.908;6.974;2023-07-20T08:23:15;21.90;99.90
8231;DHT22;4156;50.908;6.974;2023-07-20T08:25:41;21.90;99.90
8231;DHT22;4156;50.908;6.974;2023-07-20T08:28:18;21.90;99.90
8231;DHT22;4156;50.908;6.974;2023-07-20T08:30:49;22.00;99.90
8231;DHT22;4156;50.908;6.974;2023-07-20T08:33:16;22.00;99.90
8231;DHT22;4156;50.908;6.974;2023-07-20T08:35:42;22.00;99.90
8231;DHT22;4156;50.908;6.974;2023-07-20T08:38:08;22.10;99.90
8231;DHT22;4156;50.908;6.974;2023-07-20T08:40:38;22.00;99.90
8231;DHT22;4156;50.908;6.974;2023-07-20T08:43:04;22.10;99.90
8231;DHT22;4156;50.908;6.974;2023-07-20T08:45:33;22.10;99.90
8231;DHT22;4156;50.908;6.974;2023-07-20T08:48:01;22.20;99.90
8231;DHT22;4156;50.908;6.974;2023-07-20T08:50:28;22.20;99.90
8231;DHT22;4156;50.908;6.974;2023-07-20T08:52:57;22.20;99.90
8231;DHT22;4156;50.908;6.974;2023-07-20T08:55:24;22.20;99.90
8231;DHT22;4156;50.908;6.974;2023-07-20T08:57:53;22.20;99.90
8231;DHT22;4156;50.908;6.974;2023-07-20T09:00:20;22.30;99.90
8231;DHT22;4156;50.908;6.974;2023-07-20T09:02:49;22.30;99.90
8231;DHT22;4156;50.908;6.974;2023-07-20T09:05:15;22.30;99.90
8231;DHT22;4156;50.908;6.974;2023-07-20T09:07:41;22.30;99.90
8231;DHT22;4156;50.908;6.974;2023-07-20T09:10:07;22.30;99.90
8231;DHT22;4156;50.908;6.974;2023-07-20T09:12:37;22.30;99.90
8231;DHT22;4156;50.908;6.974;2023-07-20T09:15:04;22.20;99.90
8231;DHT22;4156;50.908;6.974;2023-07-20T09:17:30;22.40;99.90
8231;DHT22;4156;50.908;6.974;2023-07-20T09:19:55;22.40;99.90
8231;DHT22;4156;50.908;6.974;2023-07-20T09:22:21;22.40;99.90
8231;DHT22;4156;50.908;6.974;2023-07-20T09:24:46;22.40;99.90
8231;DHT22;4156;50.908;6.974;2023-07-20T09:27:12;22.40;99.90
8231;DHT22;4156;50.908;6.974;2023-07-20T09:29:48;22.40;99.90
8231;DHT22;4156;50.908;6.974;2023-07-20T09:32:18;22.40;99.90
8231;DHT22;4156;50.908;6.974;2023-07-20T09:34:46;22.50;99.90
8231;DHT22;4156;50.908;6.974;2023-07-20T09:37:11;22.50;99.90
8231;DHT22;4156;50.908;6.974;2023-07-20T09:39:44;22.50;99.90
8231;DHT22;4156;50.908;6.974;2023-07-20T09:42:11;22.60;99.90
8231;DHT22;4156;50.908;6.974;2023-07-20T09:44:38;22.60;99.90
8231;DHT22;4156;50.908;6.974;2023-07-20T09:47:05;22.60;99.90
8231;DHT22;4156;50.908;6.974;2023-07-20T09:49:31;22.50;99.90
8231;DHT22;4156;50.908;6.974;2023-07-20T09:52:00;22.60;99.90
8231;DHT22;4156;50.908;6.974;2023-07-20T09:54:28;22.60;99.90
8231;DHT22;4156;50.908;6.974;2023-07-20T09:56:55;22.60;99.90
8231;DHT22;4156;50.908;6.974;2023-07-20T09:59:21;22.70;99.90
8231;DHT22;4156;50.908;6.974;2023-07-20T10:01:47;22.70;99.90
8231;DHT22;4156;50.908;6.974;2023-07-20T10:04:15;22.70;99.90
8231;DHT22;4156;50.908;6.974;2023-07-20T10:06:42;22.70;99.90
8231;DHT22;4156;50.908;6.974;2023-07-20T10:09:12;22.70;99.90
8231;DHT22;4156;50.908;6.974;2023-07-20T10:11:45;22.70;99.90
8231;DHT22;4156;50.908;6.974;2023-07-20T10:14:28;22.70;99.90
8231;DHT22;4156;50.908;6.974;2023-07-20T10:16:59;22.70;99.90
8231;DHT22;4156;50.908;6.974;2023-07-20T10:19:49;22.70;99.90
8231;DHT22;4156;50.908;6.974;2023-07-20T10:22:29;22.70;99.90
8231;DHT22;4156;50.908;6.974;2023-07-20T10:24:58;22.70;99.90
8231;DHT22;4156;50.908;6.974;2023-07-20T10:27:38;22.70;99.90
8231;DHT22;4156;50.908;6.974;2023-07-20T10:30:13;22.80;99.90
8231;DHT22;4156;50.908;6.974;2023-07-20T10:33:13;22.80;99.90
8231;DHT22;4156;50.908;6.974;2023-07-20T10:36:04;22.80;99.90
8231;DHT22;4156;50.908;6.974;2023-07-20T10:41:22;22.80;99.90
8231;DHT22;4156;50.908;6.974;2023-07-20T10:44:19;22.80;99.90
8231;DHT22;4156;50.908;6.974;2023-07-20T10:46:47;22.80;99.90
8231;DHT22;4156;50.908;6.974;2023-07-20T10:49:26;22.90;99.90
8231;DHT22;4156;50.908;6.974;2023-07-20T10:52:15;22.90;99.90
8231;DHT22;4156;50.908;6.974;2023-07-20T10:54:47;22.90;99.90
8231;DHT22;4156;50.908;6.974;2023-07-20T10:57:32;22.90;99.90
8231;DHT22;4156;50.908;6.974;2023-07-20T11:00:19;23.00;99.90
8231;DHT22;4156;50.908;6.974;2023-07-20T11:02:52;23.00;99.90
8231;DHT22;4156;50.908;6.974;2023-07-20T11:05:43;23.10;99.90
8231;DHT22;4156;50.908;6.974;2023-07-20T11:08:16;23.00;99.90
8231;DHT22;4156;50.908;6.974;2023-07-20T11:11:26;23.00;99.90
8231;DHT22;4156;50.908;6.974;2023-07-20T11:14:07;23.10;99.90
8231;DHT22;4156;50.908;6.974;2023-07-20T11:17:10;23.10;99.90
8231;DHT22;4156;50.908;6.974;2023-07-20T11:26:54;23.10;99.90
8231;DHT22;4156;50.908;6.974;2023-07-20T11:29:26;23.10;99.90
8231;DHT22;4156;50.908;6.974;2023-07-20T11:31:52;23.10;99.90
8231;DHT22;4156;50.908;6.974;2023-07-20T11:34:27;23.10;99.90
8231;DHT22;4156;50.908;6.974;2023-07-20T11:36:56;23.20;99.90
8231;DHT22;4156;50.908;6.974;2023-07-20T11:39:23;23.20;99.90
8231;DHT22;4156;50.908;6.974;2023-07-20T11:42:01;23.20;99.90
8231;DHT22;4156;50.908;6.974;2023-07-20T11:44:31;23.20;99.90
8231;DHT22;4156;50.908;6.974;2023-07-20T11:47:19;23.20;99.90
8231;DHT22;4156;50.908;6.974;2023-07-20T11:50:06;23.20;99.90
8231;DHT22;4156;50.908;6.974;2023-07-20T11:52:35;23.30;99.90
8231;DHT22;4156;50.908;6.974;2023-07-20T11:55:04;23.30;99.90
8231;DHT22;4156;50.908;6.974;2023-07-20T11:57:40;23.30;99.90
8231;DHT22;4156;50.908;6.974;2023-07-20T12:00:16;23.30;99.90
8231;DHT22;4156;50.908;6.974;2023-07-20T12:02:43;23.30;99.90
8231;DHT22;4156;50.908;6.974;2023-07-20T12:05:15;23.30;99.90
8231;DHT22;4156;50.908;6.974;2023-07-20T12:07:54;23.30;99.90
8231;DHT22;4156;50.908;6.974;2023-07-20T12:10:39;23.30;99.90
8231;DHT22;4156;50.908;6.974;2023-07-20T12:13:13;23.30;99.90
8231;DHT22;4156;50.908;6.974;2023-07-20T12:15:41;23.30;99.90
8231;DHT22;4156;50.908;6.974;2023-07-20T12:18:08;23.30;99.90
8231;DHT22;4156;50.908;6.974;2023-07-20T12:20:35;23.30;99.90
8231;DHT22;4156;50.908;6.974;2023-07-20T12:23:16;23.30;99.90
8231;DHT22;4156;50.908;6.974;2023-07-20T12:25:51;23.40;99.90
8231;DHT22;4156;50.908;6.974;2023-07-20T12:28:28;23.40;99.90
8231;DHT22;4156;50.908;6.974;2023-07-20T12:30:54;23.40;99.90
8231;DHT22;4156;50.908;6.974;2023-07-20T12:33:24;23.50;99.90
8231;DHT22;4156;50.908;6.974;2023-07-20T12:35:55;23.50;99.90
8231;DHT22;4156;50.908;6.974;2023-07-20T12:38:27;23.50;99.90
8231;DHT22;4156;50.908;6.974;2023-07-20T12:41:06;23.50;99.90
8231;DHT22;4156;50.908;6.974;2023-07-20T12:43:45;23.50;99.90
8231;DHT22;4156;50.908;6.974;2023-07-20T12:46:21;23.50;99.90
8231;DHT22;4156;50.908;6.974;2023-07-20T12:49:09;23.50;99.90
8231;DHT22;4156;50.908;6.974;2023-07-20T12:54:26;23.40;99.90
8231;DHT22;4156;50.908;6.974;2023-07-20T12:57:04;23.40;99.90
8231;DHT22;4156;50.908;6.974;2023-07-20T12:59:29;23.40;99.90
8231;DHT22;4156;50.908;6.974;2023-07-20T13:01:57;23.40;99.90
8231;DHT22;4156;50.908;6.974;2023-07-20T13:04:37;23.40;99.90
8231;DHT22;4156;50.908;6.974;2023-07-20T13:07:38;23.40;99.90
8231;DHT22;4156;50.908;6.974;2023-07-20T13:10:15;23.50;99.90
8231;DHT22;4156;50.908;6.974;2023-07-20T13:13:20;23.50;99.90
8231;DHT22;4156;50.908;6.974;2023-07-20T13:15:48;23.50;99.90
8231;DHT22;4156;50.908;6.974;2023-07-20T13:18:21;23.50;99.90
8231;DHT22;4156;50.908;6.974;2023-07-20T13:21:13;23.50;99.90
8231;DHT22;4156;50.908;6.974;2023-07-20T13:24:19;23.50;99.90
8231;DHT22;4156;50.908;6.974;2023-07-20T13:27:07;23.50;99.90
8231;DHT22;4156;50.908;6.974;2023-07-20T13:29:40;23.50;99.90
8231;DHT22;4156;50.908;6.974;2023-07-20T13:32:15;23.50;99.90
8231;DHT22;4156;50.908;6.974;2023-07-20T13:34:51;23.50;99.90
8231;DHT22;4156;50.908;6.974;2023-07-20T13:37:30;23.50;99.90
8231;DHT22;4156;50.908;6.974;2023-07-20T13:40:10;23.50;99.90
8231;DHT22;4156;50.908;6.974;2023-07-20T13:43:06;23.60;99.90
8231;DHT22;4156;50.908;6.974;2023-07-20T13:46:16;23.50;99.90
8231;DHT22;4156;50.908;6.974;2023-07-20T13:49:14;23.60;99.90
8231;DHT22;4156;50.908;6.974;2023-07-20T13:51:43;23.60;99.90
8231;DHT22;4156;50.908;6.974;2023-07-20T13:54:16;23.60;99.90
8231;DHT22;4156;50.908;6.974;2023-07-20T13:57:09;23.60;99.90
8231;DHT22;4156;50.908;6.974;2023-07-20T14:00:03;23.60;99.90
8231;DHT22;4156;50.908;6.974;2023-07-20T14:03:08;23.70;99.90
8231;DHT22;4156;50.908;6.974;2023-07-20T14:06:04;23.60;99.90
8231;DHT22;4156;50.908;6.974;2023-07-20T14:08:36;23.60;99.90
8231;DHT22;4156;50.908;6.974;2023-07-20T14:21:44;23.70;99.90
8231;DHT22;4156;50.908;6.974;2023-07-20T14:24:13;23.70;99.90
8231;DHT22;4156;50.908;6.974;2023-07-20T14:26:42;23.70;99.90
8231;DHT22;4156;50.908;6.974;2023-07-20T14:29:26;23.70;99.90
8231;DHT22;4156;50.908;6.974;2023-07-20T14:32:18;23.70;99.90
8231;DHT22;4156;50.908;6.974;2023-07-20T14:34:44;23.70;99.90
8231;DHT22;4156;50.908;6.974;2023-07-20T14:37:21;23.70;99.90
8231;DHT22;4156;50.908;6.974;2023-07-20T14:39:55;23.70;99.90
8231;DHT22;4156;50.908;6.974;2023-07-20T14:42:25;23.70;99.90
8231;DHT22;4156;50.908;6.974;2023-07-20T14:45:07;23.80;99.90
8231;DHT22;4156;50.908;6.974;2023-07-20T14:47:39;23.70;99.90
8231;DHT22;4156;50.908;6.974;2023-07-20T14:50:05;23.70;99.90
8231;DHT22;4156;50.908;6.974;2023-07-20T14:52:31;23.70;99.90
8231;DHT22;4156;50.908;6.974;2023-07-20T14:54:57;23.70;99.90
8231;DHT22;4156;50.908;6.974;2023-07-20T14:57:22;23.80;99.90
8231;DHT22;4156;50.908;6.974;2023-07-20T14:59:52;23.80;99.90
8231;DHT22;4156;50.908;6.974;2023-07-20T15:02:18;23.80;99.90
8231;DHT22;4156;50.908;6.974;2023-07-20T15:04:47;23.80;99.90
8231;DHT22;4156;50.908;6.974;2023-07-20T15:07:13;23.80;99.90
8231;DHT22;4156;50.908;6.974;2023-07-20T15:09:38;23.80;99.90
8231;DHT22;4156;50.908;6.974;2023-07-20T15:12:05;23.80;99.90
8231;DHT22;4156;50.908;6.974;2023-07-20T15:14:30;23.90;99.90
8231;DHT22;4156;50.908;6.974;2023-07-20T15:16:56;23.80;99.90
8231;DHT22;4156;50.908;6.974;2023-07-20T15:19:22;23.90;99.90
8231;DHT22;4156;50.908;6.974;2023-07-20T15:21:48;23.90;99.90
8231;DHT22;4156;50.908;6.974;2023-07-20T15:24:13;23.80;99.90
8231;DHT22;4156;50.908;6.974;2023-07-20T15:26:39;23.90;99.90
8231;DHT22;4156;50.908;6.974;2023-07-20T15:29:06;23.90;99.90
8231;DHT22;4156;50.908;6.974;2023-07-20T15:31:32;23.90;99.90
8231;DHT22;4156;50.908;6.974;2023-07-20T15:33:57;23.90;99.90
8231;DHT22;4156;50.908;6.974;2023-07-20T15:36:23;23.90;99.90
8231;DHT22;4156;50.908;6.974;2023-07-20T15:38:49;23.90;99.90
8231;DHT22;4156;50.908;6.974;2023-07-20T15:41:14;24.00;99.90
8231;DHT22;4156;50.908;6.974;2023-07-20T15:43:41;24.00;99.90
8231;DHT22;4156;50.908;6.974;2023-07-20T15:48:45;24.00;99.90
8231;DHT22;4156;50.908;6.974;2023-07-20T15:51:11;24.00;99.90
8231;DHT22;4156;50.908;6.974;2023-07-20T15:53:37;24.00;99.90
8231;DHT22;4156;50.908;6.974;2023-07-20T15:56:02;24.00;99.90
8231;DHT22;4156;50.908;6.974;2023-07-20T15:58:29;24.00;99.90
8231;DHT22;4156;50.908;6.974;2023-07-20T16:00:54;24.00;99.90
8231;DHT22;4156;50.908;6.974;2023-07-20T16:03:21;24.00;99.90
8231;DHT22;4156;50.908;6.974;2023-07-20T16:05:47;24.00;99.90
8231;DHT22;4156;50.908;6.974;2023-07-20T16:08:13;24.10;99.90
8231;DHT22;4156;50.908;6.974;2023-07-20T16:10:38;24.00;99.90
8231;DHT22;4156;50.908;6.974;2023-07-20T16:13:04;24.00;99.90
8231;DHT22;4156;50.908;6.974;2023-07-20T16:15:30;24.10;99.90
8231;DHT22;4156;50.908;6.974;2023-07-20T16:17:55;24.00;99.90
8231;DHT22;4156;50.908;6.974;2023-07-20T16:20:21;24.10;99.90
8231;DHT22;4156;50.908;6.974;2023-07-20T16:22:46;24.10;99.90
8231;DHT22;4156;50.908;6.974;2023-07-20T16:25:13;24.10;99.90
8231;DHT22;4156;50.908;6.974;2023-07-20T16:27:38;24.70;99.90
8231;DHT22;4156;50.908;6.974;2023-07-20T16:30:05;24.00;99.90
8231;DHT22;4156;50.908;6.974;2023-07-20T16:32:30;24.10;99.90
8231;DHT22;4156;50.908;6.974;2023-07-20T16:34:56;24.00;99.90
8231;DHT22;4156;50.908;6.974;2023-07-20T16:37:21;24.10;99.90
8231;DHT22;4156;50.908;6.974;2023-07-20T16:39:51;24.10;99.90
8231;DHT22;4156;50.908;6.974;2023-07-20T16:42:18;24.00;99.90
8231;DHT22;4156;50.908;6.974;2023-07-20T16:44:49;24.10;99.90
8231;DHT22;4156;50.908;6.974;2023-07-20T16:47:15;24.20;99.90
8231;DHT22;4156;50.908;6.974;2023-07-20T16:49:41;24.20;99.90
8231;DHT22;4156;50.908;6.974;2023-07-20T16:52:06;24.30;99.90
8231;DHT22;4156;50.908;6.974;2023-07-20T16:54:32;24.20;99.90